createdAt,value
2018-02-02T00:00:01.296Z,996.26
2018-02-02T00:01:01.213Z,996.29
2018-02-02T00:02:01.141Z,996.25
2018-02-02T00:03:01.042Z,996.30
2018-02-02T00:04:00.948Z,996.20
2018-02-02T00:05:00.866Z,996.20
2018-02-02T00:06:00.787Z,996.23
2018-02-02T00:07:00.705Z,996.22
2018-02-02T00:08:00.619Z,996.20
2018-02-02T00:09:00.537Z,996.23
2018-02-02T00:10:00.458Z,996.17
2018-02-02T00:11:00.371Z,996.21
2018-02-02T00:12:00.278Z,996.23
2018-02-02T00:13:00.196Z,996.23
2018-02-02T00:14:00.110Z,996.23
2018-02-02T00:15:00.035Z,996.24
2018-02-02T00:15:59.940Z,996.26
2018-02-02T00:16:59.853Z,996.27
2018-02-02T00:17:59.795Z,996.30
2018-02-02T00:18:59.690Z,996.25
2018-02-02T00:19:59.613Z,996.27
2018-02-02T00:20:59.518Z,996.29
2018-02-02T00:21:59.437Z,996.30
2018-02-02T00:22:59.354Z,996.31
2018-02-02T00:23:59.272Z,996.34
2018-02-02T00:24:59.187Z,996.32
2018-02-02T00:25:59.111Z,996.34
2018-02-02T00:26:59.017Z,996.33
2018-02-02T00:27:58.928Z,996.31
2018-02-02T00:28:58.843Z,996.34
2018-02-02T00:29:58.764Z,996.33
2018-02-02T00:30:58.698Z,996.32
2018-02-02T00:31:58.596Z,996.32
2018-02-02T00:32:58.519Z,996.32
2018-02-02T00:33:58.431Z,996.33
2018-02-02T00:34:58.342Z,996.37
2018-02-02T00:35:58.269Z,996.37
2018-02-02T00:36:58.167Z,996.34
2018-02-02T00:37:58.082Z,996.41
2018-02-02T00:38:58.013Z,996.41
2018-02-02T00:39:57.921Z,996.41
2018-02-02T00:40:57.833Z,996.43
2018-02-02T00:41:57.744Z,996.40
2018-02-02T00:42:57.668Z,996.43
2018-02-02T00:43:57.579Z,996.42
2018-02-02T00:44:57.497Z,996.45
2018-02-02T00:45:57.403Z,996.41
2018-02-02T00:46:57.322Z,996.43
2018-02-02T00:47:57.243Z,996.41
2018-02-02T00:48:57.168Z,996.37
2018-02-02T00:49:57.071Z,996.36
2018-02-02T00:50:56.992Z,996.34
2018-02-02T00:51:56.918Z,996.39
2018-02-02T00:52:56.821Z,996.34
2018-02-02T00:53:56.734Z,996.36
2018-02-02T00:54:56.649Z,996.35
2018-02-02T00:55:56.576Z,996.37
2018-02-02T00:56:56.498Z,996.36
2018-02-02T00:57:56.398Z,996.38
2018-02-02T00:58:56.310Z,996.39
2018-02-02T00:59:56.221Z,996.40
2018-02-02T01:00:56.150Z,996.40
2018-02-02T01:01:56.067Z,996.43
2018-02-02T01:02:55.971Z,996.39
2018-02-02T01:03:55.895Z,996.38
2018-02-02T01:04:55.816Z,996.38
2018-02-02T01:05:55.722Z,996.39
2018-02-02T01:06:55.633Z,996.42
2018-02-02T01:07:55.545Z,996.42
2018-02-02T01:08:55.474Z,996.40
2018-02-02T01:09:55.380Z,996.41
2018-02-02T01:10:55.300Z,996.44
2018-02-02T01:11:55.221Z,996.45
2018-02-02T01:12:55.121Z,996.41
2018-02-02T01:13:55.049Z,996.42
2018-02-02T01:14:54.963Z,996.43
2018-02-02T01:15:54.875Z,996.44
2018-02-02T01:16:54.788Z,996.46
2018-02-02T01:17:54.697Z,996.46
2018-02-02T01:18:54.625Z,996.46
2018-02-02T01:19:54.550Z,996.40
2018-02-02T01:20:54.449Z,996.45
2018-02-02T01:21:54.380Z,996.41
2018-02-02T01:22:54.287Z,996.38
2018-02-02T01:23:54.193Z,996.44
2018-02-02T01:24:54.126Z,996.40
2018-02-02T01:25:54.026Z,996.43
2018-02-02T01:26:53.960Z,996.39
2018-02-02T01:27:53.875Z,996.41
2018-02-02T01:28:53.770Z,996.44
2018-02-02T01:29:53.694Z,996.44
2018-02-02T01:30:53.600Z,996.49
2018-02-02T01:31:53.525Z,996.46
2018-02-02T01:32:53.437Z,996.50
2018-02-02T01:33:53.349Z,996.50
2018-02-02T01:34:53.274Z,996.50
2018-02-02T01:35:53.177Z,996.50
2018-02-02T01:36:53.095Z,996.52
2018-02-02T01:37:53.027Z,996.46
2018-02-02T01:38:52.924Z,996.49
2018-02-02T01:39:52.836Z,996.48
2018-02-02T01:40:52.759Z,996.48
2018-02-02T01:41:52.675Z,996.47
2018-02-02T01:42:52.596Z,996.46
2018-02-02T01:43:52.501Z,996.44
2018-02-02T01:44:52.427Z,996.44
2018-02-02T01:45:52.353Z,996.46
2018-02-02T01:46:52.253Z,996.43
2018-02-02T01:47:52.174Z,996.44
2018-02-02T01:48:52.080Z,996.49
2018-02-02T01:49:51.998Z,996.45
2018-02-02T01:50:51.918Z,996.46
2018-02-02T01:51:51.827Z,996.47
2018-02-02T01:52:51.737Z,996.44
2018-02-02T01:53:51.660Z,996.44
2018-02-02T01:54:51.577Z,996.50
2018-02-02T01:55:51.487Z,996.50
2018-02-02T01:56:51.407Z,996.51
2018-02-02T01:57:51.313Z,996.48
2018-02-02T01:58:51.240Z,996.49
2018-02-02T01:59:51.158Z,996.51
2018-02-02T02:00:51.065Z,996.51
2018-02-02T02:01:50.977Z,996.49
2018-02-02T02:02:50.887Z,996.48
2018-02-02T02:03:51.111Z,996.50
2018-02-02T02:04:50.727Z,996.50
2018-02-02T02:05:50.655Z,996.51
2018-02-02T02:06:50.553Z,996.51
2018-02-02T02:07:50.477Z,996.46
2018-02-02T02:08:50.408Z,996.49
2018-02-02T02:09:50.305Z,996.46
2018-02-02T02:10:50.220Z,996.42
2018-02-02T02:11:50.131Z,996.47
2018-02-02T02:12:50.051Z,996.49
2018-02-02T02:13:49.970Z,996.47
2018-02-02T02:14:49.877Z,996.47
2018-02-02T02:15:49.793Z,996.48
2018-02-02T02:16:49.712Z,996.49
2018-02-02T02:17:49.631Z,996.49
2018-02-02T02:18:49.546Z,996.51
2018-02-02T02:19:49.457Z,996.54
2018-02-02T02:20:49.377Z,996.56
2018-02-02T02:21:49.298Z,996.55
2018-02-02T02:22:49.204Z,996.57
2018-02-02T02:23:49.115Z,996.57
2018-02-02T02:24:49.033Z,996.59
2018-02-02T02:25:48.939Z,996.55
2018-02-02T02:26:48.869Z,996.53
2018-02-02T02:27:48.783Z,996.50
2018-02-02T02:28:48.695Z,996.51
2018-02-02T02:29:48.613Z,996.47
2018-02-02T02:30:48.528Z,996.45
2018-02-02T02:31:48.446Z,996.52
2018-02-02T02:32:48.357Z,996.51
2018-02-02T02:33:48.276Z,996.49
2018-02-02T02:34:48.188Z,996.46
2018-02-02T02:35:48.110Z,996.44
2018-02-02T02:36:48.015Z,996.45
2018-02-02T02:37:47.931Z,996.42
2018-02-02T02:38:47.848Z,996.49
2018-02-02T02:39:47.759Z,996.48
2018-02-02T02:40:47.687Z,996.49
2018-02-02T02:41:47.595Z,996.50
2018-02-02T02:42:47.509Z,996.51
2018-02-02T02:43:47.436Z,996.46
2018-02-02T02:44:47.347Z,996.50
2018-02-02T02:45:47.267Z,996.44
2018-02-02T02:46:47.183Z,996.48
2018-02-02T02:47:47.079Z,996.48
2018-02-02T02:48:46.997Z,996.45
2018-02-02T02:49:46.906Z,996.47
2018-02-02T02:50:46.839Z,996.42
2018-02-02T02:51:46.750Z,996.43
2018-02-02T02:52:46.666Z,996.52
2018-02-02T02:53:46.587Z,996.49
2018-02-02T02:54:46.487Z,996.49
2018-02-02T02:55:46.406Z,996.53
2018-02-02T02:56:46.328Z,996.54
2018-02-02T02:57:46.234Z,996.47
2018-02-02T02:58:46.158Z,996.54
2018-02-02T02:59:46.060Z,996.50
2018-02-02T03:00:45.980Z,996.52
2018-02-02T03:01:45.899Z,996.50
2018-02-02T03:02:45.807Z,996.50
2018-02-02T03:03:46.032Z,996.52
2018-02-02T03:04:45.642Z,996.50
2018-02-02T03:05:45.561Z,996.52
2018-02-02T03:06:45.485Z,996.53
2018-02-02T03:07:45.391Z,996.56
2018-02-02T03:08:45.298Z,996.57
2018-02-02T03:09:45.214Z,996.56
2018-02-02T03:10:45.137Z,996.64
2018-02-02T03:11:45.046Z,996.64
2018-02-02T03:12:44.962Z,996.64
2018-02-02T03:13:44.870Z,996.68
2018-02-02T03:14:44.786Z,996.66
2018-02-02T03:15:44.714Z,996.62
2018-02-02T03:16:44.633Z,996.66
2018-02-02T03:17:44.539Z,996.62
2018-02-02T03:18:44.451Z,996.60
2018-02-02T03:19:44.361Z,996.57
2018-02-02T03:20:44.291Z,996.57
2018-02-02T03:21:44.196Z,996.64
2018-02-02T03:22:44.116Z,996.63
2018-02-02T03:23:44.026Z,996.62
2018-02-02T03:24:43.933Z,996.63
2018-02-02T03:25:43.861Z,996.60
2018-02-02T03:26:43.771Z,996.64
2018-02-02T03:27:43.683Z,996.67
2018-02-02T03:28:43.611Z,996.70
2018-02-02T03:29:43.512Z,996.69
2018-02-02T03:30:43.445Z,996.69
2018-02-02T03:31:43.364Z,996.70
2018-02-02T03:32:43.260Z,996.70
2018-02-02T03:33:43.188Z,996.69
2018-02-02T03:34:43.082Z,996.70
2018-02-02T03:35:43.003Z,996.66
2018-02-02T03:36:42.927Z,996.74
2018-02-02T03:37:42.838Z,996.69
2018-02-02T03:38:42.755Z,996.72
2018-02-02T03:39:42.668Z,996.71
2018-02-02T03:40:42.575Z,996.76
2018-02-02T03:41:42.493Z,996.73
2018-02-02T03:42:42.413Z,996.76
2018-02-02T03:43:42.325Z,996.77
2018-02-02T03:44:42.242Z,996.73
2018-02-02T03:45:42.152Z,996.77
2018-02-02T03:46:42.071Z,996.75
2018-02-02T03:47:41.996Z,996.74
2018-02-02T03:48:41.898Z,996.75
2018-02-02T03:49:41.817Z,996.75
2018-02-02T03:50:41.729Z,996.74
2018-02-02T03:51:41.641Z,996.71
2018-02-02T03:52:41.573Z,996.74
2018-02-02T03:53:41.489Z,996.74
2018-02-02T03:54:41.395Z,996.75
2018-02-02T03:55:41.303Z,996.75
2018-02-02T03:56:41.212Z,996.76
2018-02-02T03:57:41.141Z,996.80
2018-02-02T03:58:41.060Z,996.80
2018-02-02T03:59:40.961Z,996.82
2018-02-02T04:00:40.889Z,996.81
2018-02-02T04:01:40.789Z,996.81
2018-02-02T04:02:40.720Z,996.80
2018-02-02T04:03:40.632Z,996.81
2018-02-02T04:04:40.541Z,996.80
2018-02-02T04:05:40.466Z,996.85
2018-02-02T04:06:40.363Z,996.84
2018-02-02T04:07:40.275Z,996.84
2018-02-02T04:08:40.193Z,996.82
2018-02-02T04:09:40.116Z,996.81
2018-02-02T04:10:40.034Z,996.76
2018-02-02T04:11:39.944Z,996.76
2018-02-02T04:12:39.865Z,996.75
2018-02-02T04:13:39.766Z,996.76
2018-02-02T04:14:39.694Z,996.76
2018-02-02T04:15:39.609Z,996.76
2018-02-02T04:16:39.515Z,996.79
2018-02-02T04:17:39.443Z,996.80
2018-02-02T04:18:39.339Z,996.78
2018-02-02T04:19:39.252Z,996.83
2018-02-02T04:20:39.182Z,996.84
2018-02-02T04:21:39.092Z,996.85
2018-02-02T04:22:39.009Z,996.89
2018-02-02T04:23:38.923Z,996.91
2018-02-02T04:24:38.835Z,996.91
2018-02-02T04:25:38.750Z,996.91
2018-02-02T04:26:38.668Z,996.94
2018-02-02T04:27:38.596Z,996.93
2018-02-02T04:28:38.498Z,996.96
2018-02-02T04:29:38.421Z,996.94
2018-02-02T04:30:38.323Z,996.96
2018-02-02T04:31:38.246Z,996.95
2018-02-02T04:32:38.153Z,997.00
2018-02-02T04:33:38.074Z,996.92
2018-02-02T04:34:37.985Z,996.97
2018-02-02T04:35:37.895Z,996.96
2018-02-02T04:36:37.822Z,996.96
2018-02-02T04:37:37.724Z,996.94
2018-02-02T04:38:37.646Z,996.89
2018-02-02T04:39:37.558Z,996.91
2018-02-02T04:40:37.466Z,996.88
2018-02-02T04:41:37.388Z,996.84
2018-02-02T04:42:37.307Z,996.88
2018-02-02T04:43:37.219Z,996.92
2018-02-02T04:44:37.136Z,996.88
2018-02-02T04:45:37.044Z,996.87
2018-02-02T04:46:36.961Z,996.90
2018-02-02T04:47:36.873Z,996.91
2018-02-02T04:48:36.784Z,996.90
2018-02-02T04:49:36.710Z,996.90
2018-02-02T04:50:36.617Z,996.93
2018-02-02T04:51:36.534Z,996.94
2018-02-02T04:52:36.447Z,996.99
2018-02-02T04:53:36.370Z,997.02
2018-02-02T04:54:36.335Z,997.03
2018-02-02T04:55:36.198Z,997.07
2018-02-02T04:56:36.110Z,997.06
2018-02-02T04:57:36.025Z,997.08
2018-02-02T04:58:36.242Z,997.11
2018-02-02T04:59:35.843Z,997.14
2018-02-02T05:00:35.780Z,997.13
2018-02-02T05:01:35.694Z,997.14
2018-02-02T05:02:35.598Z,997.10
2018-02-02T05:03:35.515Z,997.12
2018-02-02T05:04:35.420Z,997.10
2018-02-02T05:05:35.339Z,997.13
2018-02-02T05:06:35.250Z,997.08
2018-02-02T05:07:35.172Z,997.12
2018-02-02T05:08:35.089Z,997.12
2018-02-02T05:09:34.998Z,997.17
2018-02-02T05:10:34.924Z,997.11
2018-02-02T05:11:34.825Z,997.14
2018-02-02T05:12:34.748Z,997.15
2018-02-02T05:13:34.665Z,997.18
2018-02-02T05:14:34.574Z,997.16
2018-02-02T05:15:34.486Z,997.15
2018-02-02T05:16:34.401Z,997.18
2018-02-02T05:17:34.321Z,997.18
2018-02-02T05:18:34.244Z,997.18
2018-02-02T05:19:34.150Z,997.16
2018-02-02T05:20:34.076Z,997.11
2018-02-02T05:21:33.987Z,997.11
2018-02-02T05:22:33.888Z,997.15
2018-02-02T05:23:33.802Z,997.07
2018-02-02T05:24:33.729Z,997.08
2018-02-02T05:25:33.635Z,997.07
2018-02-02T05:26:33.556Z,997.07
2018-02-02T05:27:33.477Z,997.04
2018-02-02T05:28:33.371Z,997.08
2018-02-02T05:29:33.295Z,997.05
2018-02-02T05:30:33.225Z,997.07
2018-02-02T05:31:33.125Z,997.09
2018-02-02T05:32:33.041Z,997.10
2018-02-02T05:33:32.948Z,997.06
2018-02-02T05:34:32.868Z,997.10
2018-02-02T05:35:32.780Z,997.05
2018-02-02T05:36:32.699Z,997.08
2018-02-02T05:37:32.619Z,997.08
2018-02-02T05:38:32.569Z,997.09
2018-02-02T05:39:32.452Z,997.09
2018-02-02T05:40:32.358Z,997.09
2018-02-02T05:41:32.276Z,997.10
2018-02-02T05:42:32.203Z,997.10
2018-02-02T05:43:32.109Z,997.10
2018-02-02T05:44:32.014Z,997.10
2018-02-02T05:45:31.927Z,997.08
2018-02-02T05:46:31.849Z,997.07
2018-02-02T05:47:31.761Z,997.12
2018-02-02T05:48:31.678Z,997.10
2018-02-02T05:49:31.594Z,997.09
2018-02-02T05:50:31.507Z,997.08
2018-02-02T05:51:31.422Z,997.08
2018-02-02T05:52:31.325Z,997.15
2018-02-02T05:53:31.257Z,997.14
2018-02-02T05:54:31.165Z,997.14
2018-02-02T05:55:31.077Z,997.17
2018-02-02T05:56:30.998Z,997.18
2018-02-02T05:57:30.900Z,997.14
2018-02-02T05:58:30.828Z,997.15
2018-02-02T05:59:30.753Z,997.10
2018-02-02T06:00:30.658Z,997.16
2018-02-02T06:01:30.572Z,997.16
2018-02-02T06:02:30.483Z,997.13
2018-02-02T06:03:30.403Z,997.16
2018-02-02T06:04:30.319Z,997.17
2018-02-02T06:05:30.232Z,997.16
2018-02-02T06:06:30.158Z,997.22
2018-02-02T06:07:30.059Z,997.18
2018-02-02T06:08:29.984Z,997.22
2018-02-02T06:09:29.905Z,997.22
2018-02-02T06:10:29.805Z,997.20
2018-02-02T06:11:29.714Z,997.20
2018-02-02T06:12:29.637Z,997.16
2018-02-02T06:13:29.553Z,997.19
2018-02-02T06:14:29.475Z,997.18
2018-02-02T06:15:29.385Z,997.16
2018-02-02T06:16:29.307Z,997.18
2018-02-02T06:17:29.206Z,997.17
2018-02-02T06:18:29.130Z,997.21
2018-02-02T06:19:29.057Z,997.18
2018-02-02T06:20:28.960Z,997.21
2018-02-02T06:21:28.875Z,997.22
2018-02-02T06:22:28.783Z,997.23
2018-02-02T06:23:28.708Z,997.24
2018-02-02T06:24:28.621Z,997.27
2018-02-02T06:25:28.539Z,997.28
2018-02-02T06:26:28.462Z,997.26
2018-02-02T06:27:28.360Z,997.25
2018-02-02T06:28:28.284Z,997.24
2018-02-02T06:29:28.208Z,997.24
2018-02-02T06:30:28.105Z,997.24
2018-02-02T06:31:28.018Z,997.26
2018-02-02T06:32:27.933Z,997.25
2018-02-02T06:33:27.856Z,997.23
2018-02-02T06:34:27.777Z,997.23
2018-02-02T06:35:27.688Z,997.25
2018-02-02T06:36:27.604Z,997.23
2018-02-02T06:37:27.512Z,997.24
2018-02-02T06:38:27.435Z,997.25
2018-02-02T06:39:27.346Z,997.27
2018-02-02T06:40:27.261Z,997.25
2018-02-02T06:41:27.168Z,997.23
2018-02-02T06:42:27.097Z,997.24
2018-02-02T06:43:27.014Z,997.21
2018-02-02T06:44:26.925Z,997.22
2018-02-02T06:45:26.836Z,997.24
2018-02-02T06:46:26.747Z,997.23
2018-02-02T06:47:26.659Z,997.23
2018-02-02T06:48:26.587Z,997.25
2018-02-02T06:49:26.493Z,997.25
2018-02-02T06:50:26.458Z,997.30
2018-02-02T06:51:26.322Z,997.29
2018-02-02T06:52:26.237Z,997.28
2018-02-02T06:53:26.160Z,997.33
2018-02-02T06:54:26.070Z,997.39
2018-02-02T06:55:25.982Z,997.35
2018-02-02T06:56:25.899Z,997.33
2018-02-02T06:57:25.811Z,997.34
2018-02-02T06:58:26.039Z,997.37
2018-02-02T06:59:25.652Z,997.37
2018-02-02T07:00:25.558Z,997.36
2018-02-02T07:01:25.478Z,997.37
2018-02-02T07:02:25.412Z,997.39
2018-02-02T07:03:25.322Z,997.43
2018-02-02T07:04:25.231Z,997.46
2018-02-02T07:05:25.135Z,997.45
2018-02-02T07:06:25.052Z,997.42
2018-02-02T07:07:24.990Z,997.43
2018-02-02T07:08:24.885Z,997.45
2018-02-02T07:09:24.806Z,997.34
2018-02-02T07:10:24.711Z,997.42
2018-02-02T07:11:24.638Z,997.45
2018-02-02T07:12:24.557Z,997.44
2018-02-02T07:13:24.462Z,997.46
2018-02-02T07:14:24.393Z,997.49
2018-02-02T07:15:24.288Z,997.47
2018-02-02T07:16:24.215Z,997.48
2018-02-02T07:17:24.128Z,997.51
2018-02-02T07:18:24.338Z,997.51
2018-02-02T07:19:23.953Z,997.50
2018-02-02T07:20:23.869Z,997.52
2018-02-02T07:21:23.784Z,997.53
2018-02-02T07:22:23.714Z,997.51
2018-02-02T07:23:23.614Z,997.58
2018-02-02T07:24:23.522Z,997.57
2018-02-02T07:25:23.468Z,997.56
2018-02-02T07:26:23.363Z,997.56
2018-02-02T07:27:23.275Z,997.59
2018-02-02T07:28:23.193Z,997.60
2018-02-02T07:29:23.110Z,997.54
2018-02-02T07:30:23.034Z,997.59
2018-02-02T07:31:22.940Z,997.58
2018-02-02T07:32:22.848Z,997.57
2018-02-02T07:33:22.784Z,997.59
2018-02-02T07:34:22.687Z,997.59
2018-02-02T07:35:22.612Z,997.56
2018-02-02T07:36:22.516Z,997.56
2018-02-02T07:37:22.424Z,997.57
2018-02-02T07:38:22.360Z,997.59
2018-02-02T07:39:22.266Z,997.58
2018-02-02T07:40:22.174Z,997.64
2018-02-02T07:41:22.091Z,997.61
2018-02-02T07:42:22.017Z,997.60
2018-02-02T07:43:21.928Z,997.59
2018-02-02T07:44:21.847Z,997.61
2018-02-02T07:45:21.764Z,997.67
2018-02-02T07:46:21.686Z,997.66
2018-02-02T07:47:21.599Z,997.65
2018-02-02T07:48:21.517Z,997.64
2018-02-02T07:49:21.420Z,997.64
2018-02-02T07:50:21.343Z,997.60
2018-02-02T07:51:21.266Z,997.56
2018-02-02T07:52:21.166Z,997.62
2018-02-02T07:53:21.077Z,997.60
2018-02-02T07:54:20.996Z,997.60
2018-02-02T07:55:20.921Z,997.64
2018-02-02T07:56:20.915Z,997.59
2018-02-02T07:57:20.744Z,997.59
2018-02-02T07:58:20.669Z,997.57
2018-02-02T07:59:20.592Z,997.60
2018-02-02T08:00:20.496Z,997.58
2018-02-02T08:01:20.401Z,997.59
2018-02-02T08:02:20.320Z,997.59
2018-02-02T08:03:20.243Z,997.59
2018-02-02T08:04:20.157Z,997.66
2018-02-02T08:05:20.253Z,997.67
2018-02-02T08:06:19.992Z,997.64
2018-02-02T08:07:19.916Z,997.69
2018-02-02T08:08:19.820Z,997.66
2018-02-02T08:09:19.734Z,997.65
2018-02-02T08:10:19.653Z,997.64
2018-02-02T08:11:19.570Z,997.67
2018-02-02T08:12:19.658Z,997.69
2018-02-02T08:13:19.403Z,997.70
2018-02-02T08:15:19.241Z,997.68
2018-02-02T08:16:19.155Z,997.67
2018-02-02T08:17:19.060Z,997.68
2018-02-02T08:18:18.973Z,997.65
2018-02-02T08:19:18.901Z,997.64
2018-02-02T08:20:18.821Z,997.64
2018-02-02T08:21:18.718Z,997.66
2018-02-02T08:22:18.645Z,997.64
2018-02-02T08:23:18.554Z,997.67
2018-02-02T08:24:18.466Z,997.62
2018-02-02T08:25:18.395Z,997.68
2018-02-02T08:26:18.298Z,997.64
2018-02-02T08:27:18.223Z,997.71
2018-02-02T08:28:18.138Z,997.68
2018-02-02T08:29:18.043Z,997.67
2018-02-02T08:30:17.968Z,997.62
2018-02-02T08:31:17.907Z,997.65
2018-02-02T08:32:17.796Z,997.67
2018-02-02T08:33:17.709Z,997.65
2018-02-02T08:34:17.650Z,997.67
2018-02-02T08:35:17.545Z,997.63
2018-02-02T08:36:17.459Z,997.67
2018-02-02T08:37:17.374Z,997.64
2018-02-02T08:38:17.309Z,997.68
2018-02-02T08:39:17.222Z,997.63
2018-02-02T08:40:17.128Z,997.62
2018-02-02T08:41:17.059Z,997.60
2018-02-02T08:42:16.975Z,997.64
2018-02-02T08:43:16.874Z,997.69
2018-02-02T08:44:16.795Z,997.67
2018-02-02T08:45:16.724Z,997.63
2018-02-02T08:46:16.657Z,997.69
2018-02-02T08:47:16.539Z,997.68
2018-02-02T08:48:16.453Z,997.69
2018-02-02T08:49:16.371Z,997.72
2018-02-02T08:50:16.293Z,997.74
2018-02-02T08:51:16.194Z,997.72
2018-02-02T08:52:16.125Z,997.72
2018-02-02T08:53:16.041Z,997.75
2018-02-02T08:54:15.952Z,997.72
2018-02-02T08:55:15.880Z,997.79
2018-02-02T08:56:15.791Z,997.77
2018-02-02T08:57:15.698Z,997.72
2018-02-02T08:58:15.923Z,997.78
2018-02-02T08:59:15.557Z,997.79
2018-02-02T09:00:15.456Z,997.77
2018-02-02T09:01:15.364Z,997.81
2018-02-02T09:02:15.300Z,997.79
2018-02-02T09:03:15.200Z,997.83
2018-02-02T09:04:15.124Z,997.86
2018-02-02T09:05:15.027Z,997.80
2018-02-02T09:06:14.952Z,997.85
2018-02-02T09:07:14.873Z,997.83
2018-02-02T09:08:14.773Z,997.86
2018-02-02T09:09:14.703Z,997.90
2018-02-02T09:10:14.610Z,997.89
2018-02-02T09:11:14.526Z,997.88
2018-02-02T09:12:14.452Z,997.90
2018-02-02T09:13:14.365Z,997.91
2018-02-02T09:14:14.279Z,997.94
2018-02-02T09:15:14.200Z,997.89
2018-02-02T09:16:14.113Z,997.91
2018-02-02T09:17:14.027Z,997.95
2018-02-02T09:18:13.952Z,997.93
2018-02-02T09:19:13.915Z,997.93
2018-02-02T09:20:13.782Z,997.90
2018-02-02T09:21:13.709Z,997.90
2018-02-02T09:22:13.627Z,997.94
2018-02-02T09:23:13.528Z,997.89
2018-02-02T09:24:13.448Z,997.87
2018-02-02T09:25:13.367Z,997.89
2018-02-02T09:26:13.276Z,997.90
2018-02-02T09:27:13.206Z,997.88
2018-02-02T09:28:13.118Z,997.86
2018-02-02T09:29:13.026Z,997.87
2018-02-02T09:30:12.956Z,997.91
2018-02-02T09:31:12.862Z,997.91
2018-02-02T09:32:12.802Z,997.91
2018-02-02T09:33:12.704Z,997.91
2018-02-02T09:34:12.629Z,997.90
2018-02-02T09:35:12.558Z,997.92
2018-02-02T09:36:12.459Z,997.92
2018-02-02T09:37:12.365Z,997.93
2018-02-02T09:38:12.293Z,997.98
2018-02-02T09:39:12.210Z,997.94
2018-02-02T09:40:12.114Z,997.91
2018-02-02T09:41:12.059Z,997.95
2018-02-02T09:42:11.951Z,997.96
2018-02-02T09:43:11.900Z,997.96
2018-02-02T09:44:11.795Z,997.98
2018-02-02T09:45:11.715Z,998.00
2018-02-02T09:46:11.630Z,997.97
2018-02-02T09:47:11.550Z,997.98
2018-02-02T09:48:11.454Z,998.00
2018-02-02T09:49:11.385Z,997.99
2018-02-02T09:50:11.293Z,997.96
2018-02-02T09:51:11.235Z,997.95
2018-02-02T09:52:11.134Z,997.96
2018-02-02T09:53:11.056Z,998.00
2018-02-02T09:54:10.957Z,997.97
2018-02-02T09:55:10.878Z,998.03
2018-02-02T09:56:10.804Z,998.01
2018-02-02T09:57:10.726Z,997.97
2018-02-02T09:58:10.629Z,997.97
2018-02-02T09:59:10.562Z,997.98
2018-02-02T10:00:10.457Z,997.93
2018-02-02T10:01:10.377Z,998.01
2018-02-02T10:02:10.310Z,997.97
2018-02-02T10:03:10.219Z,997.92
2018-02-02T10:04:10.131Z,997.92
2018-02-02T10:05:10.058Z,997.84
2018-02-02T10:06:09.967Z,997.87
2018-02-02T10:07:09.887Z,997.88
2018-02-02T10:08:09.798Z,997.84
2018-02-02T10:09:09.719Z,997.84
2018-02-02T10:10:09.632Z,997.82
2018-02-02T10:11:09.557Z,997.82
2018-02-02T10:12:09.472Z,997.81
2018-02-02T10:13:09.386Z,997.78
2018-02-02T10:14:09.305Z,997.77
2018-02-02T10:15:09.227Z,997.78
2018-02-02T10:16:09.138Z,997.80
2018-02-02T10:17:09.055Z,997.77
2018-02-02T10:18:08.982Z,997.77
2018-02-02T10:19:08.880Z,997.78
2018-02-02T10:20:08.810Z,997.74
2018-02-02T10:21:08.722Z,997.80
2018-02-02T10:22:08.631Z,997.78
2018-02-02T10:23:08.558Z,997.75
2018-02-02T10:24:08.478Z,997.73
2018-02-02T10:25:08.392Z,997.73
2018-02-02T10:26:08.313Z,997.78
2018-02-02T10:27:08.220Z,997.76
2018-02-02T10:28:08.158Z,997.84
2018-02-02T10:29:08.061Z,997.77
2018-02-02T10:30:07.981Z,997.75
2018-02-02T10:31:07.898Z,997.72
2018-02-02T10:32:07.812Z,997.71
2018-02-02T10:33:07.735Z,997.74
2018-02-02T10:34:07.650Z,997.72
2018-02-02T10:35:07.563Z,997.73
2018-02-02T10:36:07.485Z,997.72
2018-02-02T10:37:07.400Z,997.70
2018-02-02T10:38:07.337Z,997.66
2018-02-02T10:39:07.233Z,997.68
2018-02-02T10:40:07.149Z,997.72
2018-02-02T10:41:07.080Z,997.69
2018-02-02T10:42:06.987Z,997.67
2018-02-02T10:43:06.921Z,997.71
2018-02-02T10:44:06.835Z,997.69
2018-02-02T10:45:06.736Z,997.73
2018-02-02T10:46:06.664Z,997.68
2018-02-02T10:47:06.585Z,997.70
2018-02-02T10:48:06.497Z,997.69
2018-02-02T10:49:06.442Z,997.72
2018-02-02T10:50:06.338Z,997.67
2018-02-02T10:51:06.253Z,997.72
2018-02-02T10:52:06.168Z,997.68
2018-02-02T10:53:06.085Z,997.69
2018-02-02T10:54:06.002Z,997.67
2018-02-02T10:55:05.935Z,997.67
2018-02-02T10:56:05.839Z,997.67
2018-02-02T10:57:05.754Z,997.65
2018-02-02T10:58:05.692Z,997.66
2018-02-02T10:59:05.597Z,997.61
2018-02-02T11:00:05.519Z,997.62
2018-02-02T11:01:05.439Z,997.64
2018-02-02T11:02:05.362Z,997.56
2018-02-02T11:03:05.260Z,997.52
2018-02-02T11:04:05.172Z,997.55
2018-02-02T11:05:05.114Z,997.53
2018-02-02T11:06:05.013Z,997.53
2018-02-02T11:07:04.944Z,997.49
2018-02-02T11:08:04.955Z,997.56
2018-02-02T11:09:04.797Z,997.51
2018-02-02T11:10:04.715Z,997.48
2018-02-02T11:11:04.612Z,997.63
2018-02-02T11:12:04.536Z,997.55
2018-02-02T11:13:04.442Z,997.56
2018-02-02T11:14:04.363Z,997.52
2018-02-02T11:15:04.285Z,997.58
2018-02-02T11:16:04.203Z,997.54
2018-02-02T11:17:04.117Z,997.54
2018-02-02T11:18:04.042Z,997.56
2018-02-02T11:19:03.953Z,997.57
2018-02-02T11:20:03.894Z,997.62
2018-02-02T11:21:03.792Z,997.58
2018-02-02T11:22:03.699Z,997.56
2018-02-02T11:23:03.635Z,997.52
2018-02-02T11:24:03.547Z,997.48
2018-02-02T11:25:03.461Z,997.48
2018-02-02T11:26:03.383Z,997.49
2018-02-02T11:27:03.306Z,997.45
2018-02-02T11:28:03.216Z,997.56
2018-02-02T11:29:03.142Z,997.52
2018-02-02T11:30:03.056Z,997.50
2018-02-02T11:31:02.982Z,997.47
2018-02-02T11:32:02.902Z,997.51
2018-02-02T11:33:02.814Z,997.50
2018-02-02T11:34:02.731Z,997.47
2018-02-02T11:35:02.639Z,997.43
2018-02-02T11:36:02.565Z,997.43
2018-02-02T11:37:02.499Z,997.48
2018-02-02T11:38:02.421Z,997.47
2018-02-02T11:39:02.321Z,997.44
2018-02-02T11:40:02.246Z,997.39
2018-02-02T11:41:02.155Z,997.45
2018-02-02T11:42:02.097Z,997.44
2018-02-02T11:43:01.989Z,997.46
2018-02-02T11:44:01.966Z,997.44
2018-02-02T11:45:01.844Z,997.50
2018-02-02T11:46:01.761Z,997.50
2018-02-02T11:47:01.671Z,997.37
2018-02-02T11:48:01.596Z,997.42
2018-02-02T11:49:01.507Z,997.44
2018-02-02T11:50:01.432Z,997.42
2018-02-02T11:51:01.341Z,997.52
2018-02-02T11:52:01.269Z,997.47
2018-02-02T11:53:01.194Z,997.49
2018-02-02T11:54:01.109Z,997.65
2018-02-02T11:55:01.022Z,997.61
2018-02-02T11:56:00.945Z,997.61
2018-02-02T11:57:00.855Z,997.48
2018-02-02T11:58:00.797Z,997.45
2018-02-02T11:59:00.693Z,997.47
2018-02-02T12:00:00.623Z,997.49
2018-02-02T12:01:00.552Z,997.45
2018-02-02T12:02:00.465Z,997.39
2018-02-02T12:03:00.374Z,997.45
2018-02-02T12:04:00.295Z,997.44
2018-02-02T12:05:00.204Z,997.47
2018-02-02T12:06:00.136Z,997.44
2018-02-02T12:07:00.047Z,997.40
2018-02-02T12:08:00.026Z,997.36
2018-02-02T12:08:59.888Z,997.38
2018-02-02T12:09:59.804Z,997.37
2018-02-02T12:10:59.741Z,997.44
2018-02-02T12:11:59.646Z,997.41
2018-02-02T12:12:59.567Z,997.43
2018-02-02T12:13:59.496Z,997.46
2018-02-02T12:14:59.394Z,997.39
2018-02-02T12:15:59.318Z,997.38
2018-02-02T12:16:59.246Z,997.39
2018-02-02T12:17:59.162Z,997.40
2018-02-02T12:18:59.124Z,997.37
2018-02-02T12:19:59.001Z,997.42
2018-02-02T12:20:58.921Z,997.37
2018-02-02T12:21:58.847Z,997.34
2018-02-02T12:22:58.760Z,997.34
2018-02-02T12:23:58.668Z,997.25
2018-02-02T12:24:58.602Z,997.36
2018-02-02T12:25:58.513Z,997.34
2018-02-02T12:26:58.425Z,997.29
2018-02-02T12:27:58.350Z,997.34